createdAt,value
2023-02-13T00:01:57.792Z,97653.28
2023-02-13T00:04:01.247Z,97693.72
2023-02-13T00:06:04.163Z,97704.16
2023-02-13T00:08:06.938Z,97697.72
2023-02-13T00:10:10.266Z,97700.44
2023-02-13T00:12:13.001Z,97700.66
2023-02-13T00:14:15.763Z,97690.59
2023-02-13T00:16:19.899Z,97702.19
2023-02-13T00:18:22.669Z,97696.81
2023-02-13T00:20:25.499Z,97694.69
2023-02-13T00:22:28.256Z,97697.78
2023-02-13T00:24:30.991Z,97696.72
2023-02-13T00:26:33.737Z,97695.22
2023-02-13T00:28:37.058Z,97558.13
2023-02-13T00:30:39.988Z,97682.69
2023-02-13T00:32:44.203Z,97684.03
2023-02-13T00:34:46.944Z,97693.66
2023-02-13T00:36:49.891Z,97698.28
2023-02-13T00:38:52.937Z,97656.56
2023-02-13T00:40:56.653Z,97697.94
2023-02-13T00:42:59.609Z,97689.09
2023-02-13T00:45:02.374Z,97697.06
2023-02-13T00:47:06.078Z,97690.63
2023-02-13T00:49:10.215Z,97659.72
2023-02-13T00:51:13.926Z,97681.47
2023-02-13T00:53:16.655Z,97702.28
2023-02-13T00:55:22.565Z,97686.59
2023-02-13T00:57:25.382Z,97672.91
2023-02-13T00:59:28.122Z,97692.59
2023-02-13T01:01:30.900Z,97642.47
2023-02-13T01:03:35.937Z,97693.66
2023-02-13T01:05:40.237Z,97694.56
2023-02-13T01:07:42.980Z,97682.59
2023-02-13T01:09:45.690Z,97683.66
2023-02-13T01:11:48.418Z,97631.72
2023-02-13T01:13:51.211Z,97684.56
2023-02-13T01:15:56.300Z,97675.41
2023-02-13T01:18:00.854Z,97675.09
2023-02-13T01:20:03.891Z,97678.72
2023-02-13T01:22:09.495Z,97677.97
2023-02-13T01:24:12.595Z,97685.78
2023-02-13T01:26:19.405Z,97584.66
2023-02-13T01:28:22.231Z,97682.06
2023-02-13T01:30:25.031Z,97684.41
2023-02-13T01:32:27.929Z,97684.03
2023-02-13T01:34:30.649Z,97689.47
2023-02-13T01:36:33.449Z,97680.69
2023-02-13T01:38:37.574Z,97631.94
2023-02-13T01:40:46.442Z,97689.16
2023-02-13T01:42:49.182Z,97685.69
2023-02-13T01:44:54.565Z,97663.06
2023-02-13T01:46:57.439Z,97675.41
2023-02-13T01:49:04.060Z,97670.78
2023-02-13T01:51:10.490Z,97681.81
2023-02-13T01:53:18.619Z,97617.16
2023-02-13T01:55:23.017Z,97669.72
2023-02-13T01:57:29.582Z,97675.69
2023-02-13T01:59:38.875Z,97659.66
2023-02-13T02:01:42.180Z,97654.13
2023-02-13T02:03:50.456Z,97671.09
2023-02-13T02:05:58.151Z,97666.63
2023-02-13T02:08:03.683Z,97668.34
2023-02-13T02:10:10.224Z,97673.25
2023-02-13T02:12:26.793Z,97669.00
2023-02-13T02:14:29.964Z,97706.91
2023-02-13T02:16:33.926Z,97604.31
2023-02-13T02:18:40.358Z,97672.38
2023-02-13T02:21:03.132Z,97661.25
2023-02-13T02:23:41.526Z,97673.78
2023-02-13T02:26:10.003Z,97656.75
2023-02-13T02:28:33.063Z,97671.31
2023-02-13T02:30:58.940Z,97661.06
2023-02-13T02:33:11.129Z,97670.81
2023-02-13T02:35:24.717Z,97662.59
2023-02-13T02:37:44.868Z,97653.13
2023-02-13T02:40:01.782Z,97671.72
2023-02-13T02:42:19.368Z,97529.41
2023-02-13T02:44:34.663Z,97668.97
2023-02-13T02:47:04.137Z,97649.09
2023-02-13T02:49:31.947Z,97584.03
2023-02-13T02:51:43.608Z,97479.38
2023-02-13T02:53:52.941Z,97611.66
2023-02-13T02:56:00.581Z,97648.69
2023-02-13T02:58:28.338Z,97678.72
2023-02-13T03:00:53.346Z,97643.31
2023-02-13T03:03:13.549Z,97635.81
2023-02-13T03:05:39.513Z,97676.13
2023-02-13T03:07:42.441Z,97668.09
2023-02-13T03:10:07.143Z,97671.81
2023-02-13T03:12:29.143Z,97646.22
2023-02-13T03:14:32.034Z,97666.38
2023-02-13T03:16:52.473Z,97666.22
2023-02-13T03:19:16.483Z,97677.50
2023-02-13T03:21:47.074Z,97647.91
2023-02-13T03:23:59.653Z,97681.22
2023-02-13T03:26:17.867Z,97659.50
2023-02-13T03:28:46.053Z,97667.59
2023-02-13T03:30:59.592Z,97673.94
2023-02-13T03:33:19.400Z,97671.69
2023-02-13T03:35:50.954Z,97666.25
2023-02-13T03:38:01.970Z,97666.81
2023-02-13T03:40:10.510Z,97666.22
2023-02-13T03:42:22.236Z,97592.84
2023-02-13T03:44:30.870Z,97674.84
2023-02-13T03:46:37.551Z,97681.41
2023-02-13T03:49:00.518Z,97585.78
2023-02-13T03:51:05.023Z,97676.28
2023-02-13T03:53:12.657Z,97632.66
2023-02-13T03:55:35.576Z,97534.81
2023-02-13T03:58:01.725Z,97689.47
2023-02-13T04:00:09.618Z,97684.16
2023-02-13T04:02:22.176Z,97691.88
2023-02-13T04:04:32.411Z,97696.19
2023-02-13T04:06:39.818Z,97689.47
2023-02-13T04:08:44.174Z,97701.97
2023-02-13T04:10:52.945Z,97693.88
2023-02-13T04:13:03.232Z,97705.06
2023-02-13T04:15:11.941Z,97702.06
2023-02-13T04:17:20.569Z,97680.81
2023-02-13T04:19:25.027Z,97629.28
2023-02-13T04:21:27.950Z,97707.19
2023-02-13T04:23:30.915Z,97713.19
2023-02-13T04:25:36.627Z,97716.66
2023-02-13T04:27:39.346Z,97689.06
2023-02-13T04:29:42.352Z,97721.00
2023-02-13T04:31:45.248Z,97713.63
2023-02-13T04:33:48.158Z,97720.31
2023-02-13T04:35:50.888Z,97719.94
2023-02-13T04:37:53.671Z,97711.00
2023-02-13T04:39:56.434Z,97710.75
2023-02-13T04:42:00.551Z,97714.38
2023-02-13T04:44:03.322Z,97715.50
2023-02-13T04:46:06.501Z,97716.88
2023-02-13T04:48:10.065Z,97704.19
2023-02-13T04:50:12.826Z,97657.94
2023-02-13T04:52:16.328Z,97707.38
2023-02-13T04:54:19.076Z,97704.44
2023-02-13T04:56:21.860Z,97700.81
2023-02-13T04:58:26.013Z,97697.19
2023-02-13T05:00:30.055Z,97669.56
2023-02-13T05:02:33.184Z,97703.72
2023-02-13T05:04:36.000Z,97705.09
2023-02-13T05:06:39.188Z,97702.59
2023-02-13T05:08:41.981Z,97702.19
2023-02-13T05:10:44.775Z,97590.72
2023-02-13T05:12:49.002Z,97717.53
2023-02-13T05:14:53.259Z,97712.38
2023-02-13T05:16:55.987Z,97714.06
2023-02-13T05:18:58.739Z,97712.94
2023-02-13T05:21:18.893Z,97713.75
2023-02-13T05:23:24.668Z,97706.81
2023-02-13T05:25:27.369Z,97722.41
2023-02-13T05:27:30.216Z,97683.75
2023-02-13T05:29:31.938Z,97691.69
2023-02-13T05:31:36.122Z,97707.97
2023-02-13T05:33:39.097Z,97715.78
2023-02-13T05:35:41.800Z,97704.81
2023-02-13T05:37:45.026Z,97708.03
2023-02-13T05:39:47.727Z,97708.91
2023-02-13T05:41:50.880Z,97696.94
2023-02-13T05:43:53.606Z,97704.47
2023-02-13T05:46:03.850Z,97672.06
2023-02-13T05:48:08.052Z,97700.69
2023-02-13T05:50:11.450Z,97685.72
2023-02-13T05:52:14.180Z,97708.34
2023-02-13T05:54:17.002Z,97708.91
2023-02-13T05:56:19.746Z,97701.69
2023-02-13T05:58:22.809Z,97693.09
2023-02-13T06:00:26.045Z,97692.25
2023-02-13T06:02:28.787Z,97705.88
2023-02-13T06:04:32.915Z,97699.75
2023-02-13T06:06:35.763Z,97710.88
2023-02-13T06:08:38.544Z,97700.59
2023-02-13T06:10:41.855Z,97693.94
2023-02-13T06:12:45.452Z,97697.97
2023-02-13T06:14:48.166Z,97710.75
2023-02-13T06:16:50.894Z,97717.72
2023-02-13T06:18:53.586Z,97707.41
2023-02-13T06:20:59.694Z,97716.19
2023-02-13T06:23:02.931Z,97653.22
2023-02-13T06:25:06.554Z,97725.91
2023-02-13T06:27:09.250Z,97714.38
2023-02-13T06:29:12.773Z,97714.38
2023-02-13T06:31:15.641Z,97725.34
2023-02-13T06:33:18.440Z,97725.06
2023-02-13T06:35:21.300Z,97717.28
2023-02-13T06:37:25.474Z,97643.91
2023-02-13T06:39:28.174Z,97719.22
2023-02-13T06:41:30.866Z,97723.94
2023-02-13T06:43:33.662Z,97724.78
2023-02-13T06:45:36.448Z,97716.16
2023-02-13T06:47:42.432Z,97718.25
2023-02-13T06:49:45.191Z,97719.91
2023-02-13T06:51:47.960Z,97720.31
2023-02-13T06:53:52.288Z,97725.91
2023-02-13T06:55:56.510Z,97727.84
2023-02-13T06:57:59.240Z,97732.84
2023-02-13T07:00:05.788Z,97735.50
2023-02-13T07:02:10.560Z,97718.81
2023-02-13T07:04:13.346Z,97729.53
2023-02-13T07:06:18.750Z,97729.78
2023-02-13T07:08:21.473Z,97730.91
2023-02-13T07:10:25.730Z,97738.44
2023-02-13T07:12:28.434Z,97746.22
2023-02-13T07:14:31.175Z,97743.84
2023-02-13T07:16:34.069Z,97710.34
2023-02-13T07:18:38.320Z,97733.13
2023-02-13T07:20:41.337Z,97735.78
2023-02-13T07:22:44.041Z,97754.00
2023-02-13T07:24:46.801Z,97742.19
2023-02-13T07:26:50.987Z,97743.69
2023-02-13T07:29:09.211Z,97753.44
2023-02-13T07:31:13.286Z,97747.59
2023-02-13T07:33:16.061Z,97751.78
2023-02-13T07:35:18.800Z,97652.22
2023-02-13T07:37:21.628Z,97735.75
2023-02-13T07:39:24.324Z,97755.63
2023-02-13T07:41:27.196Z,97749.22
2023-02-13T07:43:31.841Z,97664.16
2023-02-13T07:45:34.827Z,97688.03
2023-02-13T07:47:38.926Z,97751.56
2023-02-13T07:49:41.675Z,97755.03
2023-02-13T07:51:44.376Z,97757.13
2023-02-13T07:53:47.167Z,97760.19
2023-02-13T07:55:49.912Z,97755.59
2023-02-13T07:57:52.935Z,97760.06
2023-02-13T07:59:57.018Z,97753.13
2023-02-13T08:01:59.769Z,97749.78
2023-02-13T08:04:02.660Z,97765.38
2023-02-13T08:06:06.851Z,97756.22
2023-02-13T08:08:09.633Z,97627.22
2023-02-13T08:10:31.705Z,97760.78
2023-02-13T08:12:36.817Z,97770.25
2023-02-13T08:14:39.530Z,97765.75
2023-02-13T08:16:43.693Z,97715.03
2023-02-13T08:18:46.459Z,97758.41
2023-02-13T08:20:49.528Z,97761.84
2023-02-13T08:22:52.402Z,97713.78
2023-02-13T08:24:55.177Z,97774.22
2023-02-13T08:26:57.894Z,97765.03
2023-02-13T08:29:00.732Z,97770.31
2023-02-13T08:31:03.476Z,97760.28
2023-02-13T08:33:07.664Z,97764.81
2023-02-13T08:35:10.433Z,97743.28
2023-02-13T08:37:13.142Z,97772.31
2023-02-13T08:39:15.937Z,97736.97
2023-02-13T08:41:19.419Z,97756.78
2023-02-13T08:43:22.188Z,97764.66
2023-02-13T08:45:24.929Z,97761.13
2023-02-13T08:47:27.690Z,97766.66
2023-02-13T08:49:32.064Z,97756.47
2023-02-13T08:51:34.811Z,97756.69
2023-02-13T08:53:38.602Z,97767.59
2023-02-13T08:55:41.400Z,97762.34
2023-02-13T08:57:44.190Z,97765.53
2023-02-13T08:59:47.049Z,97762.69
2023-02-13T09:01:49.754Z,97767.38
2023-02-13T09:03:52.507Z,97767.38
2023-02-13T09:06:00.537Z,97736.50
2023-02-13T09:08:04.027Z,97761.72
2023-02-13T09:10:08.280Z,97754.91
2023-02-13T09:12:11.018Z,97751.41
2023-02-13T09:14:13.735Z,97738.53
2023-02-13T09:16:16.906Z,97746.41
2023-02-13T09:18:19.845Z,97746.81
2023-02-13T09:20:22.601Z,97737.56
2023-02-13T09:22:26.726Z,97743.59
2023-02-13T09:24:29.454Z,97739.66
2023-02-13T09:26:32.210Z,97743.75
2023-02-13T09:28:36.138Z,97729.97
2023-02-13T09:30:38.993Z,97750.25
2023-02-13T09:32:42.643Z,97745.25
2023-02-13T09:34:45.382Z,97755.94
2023-02-13T09:36:52.627Z,97752.19
2023-02-13T09:38:58.376Z,97682.47
2023-02-13T09:41:04.396Z,97739.28
2023-02-13T09:43:12.756Z,97727.53
2023-02-13T09:45:20.859Z,97735.06
2023-02-13T09:47:29.960Z,97737.81
2023-02-13T09:49:36.526Z,97742.38
2023-02-13T09:51:39.754Z,97743.25
2023-02-13T09:53:43.495Z,97744.28
2023-02-13T09:55:52.959Z,97742.81
2023-02-13T09:58:01.863Z,97748.00
2023-02-13T10:00:13.318Z,97753.00
2023-02-13T10:02:30.884Z,97658.16
2023-02-13T10:04:43.687Z,97756.19
2023-02-13T10:06:50.955Z,97752.22
2023-02-13T10:09:10.296Z,97758.25
2023-02-13T10:11:42.445Z,97762.72
2023-02-13T10:13:58.689Z,97759.59
2023-02-13T10:16:10.687Z,97660.72
2023-02-13T10:18:17.751Z,97696.78
2023-02-13T10:20:29.964Z,97755.13
2023-02-13T10:22:36.883Z,97751.38
2023-02-13T10:24:42.622Z,97689.56
2023-02-13T10:26:48.227Z,97747.09
2023-02-13T10:29:12.183Z,97750.66
2023-02-13T10:31:18.428Z,97748.69
2023-02-13T10:33:26.843Z,97753.34
2023-02-13T10:35:32.293Z,97756.66
2023-02-13T10:37:37.169Z,97732.03
2023-02-13T10:39:43.290Z,97761.31
2023-02-13T10:41:53.293Z,97750.22
2023-02-13T10:44:10.935Z,97751.72
2023-02-13T10:46:23.262Z,97743.91
2023-02-13T10:48:40.819Z,97752.22
2023-02-13T10:50:49.280Z,97754.88
2023-02-13T10:53:06.109Z,97762.69
2023-02-13T10:55:27.912Z,97750.06
2023-02-13T10:57:53.428Z,97686.72
2023-02-13T11:00:06.178Z,97743.25
2023-02-13T11:02:22.630Z,97718.13
2023-02-13T11:04:25.471Z,97743.56
2023-02-13T11:06:28.939Z,97730.56
2023-02-13T11:08:34.382Z,97737.53
2023-02-13T11:10:37.106Z,97734.69
2023-02-13T11:12:41.211Z,97727.19
2023-02-13T11:14:55.549Z,97730.88
2023-02-13T11:17:00.782Z,97724.06
2023-02-13T11:19:03.513Z,97732.53
2023-02-13T11:21:09.816Z,97736.53
2023-02-13T11:23:34.487Z,97736.19
2023-02-13T11:25:37.318Z,97731.50
2023-02-13T11:27:41.837Z,97739.50
2023-02-13T11:29:54.490Z,97733.66
2023-02-13T11:32:05.741Z,97735.63
2023-02-13T11:34:24.766Z,97728.97
2023-02-13T11:36:29.793Z,97718.78
2023-02-13T11:38:32.600Z,97725.78
2023-02-13T11:40:35.549Z,97739.78
2023-02-13T11:42:38.647Z,97729.22
2023-02-13T11:44:44.062Z,97734.44
2023-02-13T11:46:49.112Z,97722.75
2023-02-13T11:49:03.853Z,97723.03
2023-02-13T11:51:07.154Z,97728.06
2023-02-13T11:53:20.830Z,97717.63
2023-02-13T11:55:30.818Z,97722.88
2023-02-13T11:57:35.600Z,97641.97
2023-02-13T11:59:43.901Z,97718.91
2023-02-13T12:01:50.259Z,97717.81
2023-02-13T12:04:04.982Z,97715.28
2023-02-13T12:06:14.074Z,97718.25
2023-02-13T12:08:16.913Z,97712.56
2023-02-13T12:10:23.144Z,97681.66
2023-02-13T12:12:32.533Z,97705.31
2023-02-13T12:14:40.742Z,97711.94
2023-02-13T12:16:50.450Z,97704.56
2023-02-13T12:18:57.000Z,97715.75
2023-02-13T12:21:31.198Z,97714.44
2023-02-13T12:23:45.136Z,97711.25
2023-02-13T12:26:04.042Z,97720.44
2023-02-13T12:28:13.577Z,97650.81
2023-02-13T12:30:38.739Z,97706.88
2023-02-13T12:32:53.278Z,97712.59
2023-02-13T12:35:23.520Z,97710.88
2023-02-13T12:37:48.244Z,97713.91
2023-02-13T12:40:03.557Z,97691.25
2023-02-13T12:42:27.395Z,97702.75
2023-02-13T12:44:52.675Z,97705.28
2023-02-13T12:47:08.508Z,97710.22
2023-02-13T12:49:32.802Z,97705.47
2023-02-13T12:51:50.413Z,97698.66
2023-02-13T12:54:08.253Z,97698.38
2023-02-13T12:56:31.866Z,97690.44
2023-02-13T12:58:54.742Z,97692.13
2023-02-13T13:01:05.205Z,97653.25
2023-02-13T13:03:45.451Z,97690.94
2023-02-13T13:06:11.639Z,97690.59
2023-02-13T13:08:37.266Z,97690.47
2023-02-13T13:11:02.138Z,97679.31
2023-02-13T13:13:13.947Z,97657.88
2023-02-13T13:15:26.536Z,97661.28
2023-02-13T13:17:41.942Z,97645.59
2023-02-13T13:19:54.204Z,97674.94
2023-02-13T13:22:03.584Z,97670.91
2023-02-13T13:24:19.137Z,97671.19
2023-02-13T13:26:32.145Z,97670.59
2023-02-13T13:28:38.960Z,97667.91
2023-02-13T13:30:44.385Z,97670.00
2023-02-13T13:32:52.348Z,97677.06
2023-02-13T13:34:55.919Z,97668.41
2023-02-13T13:37:06.245Z,97673.53
2023-02-13T13:39:21.691Z,97668.94
2023-02-13T13:41:32.894Z,97671.19
2023-02-13T13:43:43.264Z,97672.44
2023-02-13T13:45:51.347Z,97632.28
2023-02-13T13:48:14.563Z,97671.91
2023-02-13T13:50:23.230Z,97663.88
2023-02-13T13:52:30.037Z,97668.91
2023-02-13T13:54:37.036Z,97655.66
2023-02-13T13:57:12.428Z,97660.44
2023-02-13T13:59:18.339Z,97654.56
2023-02-13T14:01:30.653Z,97657.50
2023-02-13T14:03:37.538Z,97652.16
2023-02-13T14:05:59.202Z,97649.06
2023-02-13T14:08:24.748Z,97662.06
2023-02-13T14:11:03.877Z,97661.66
2023-02-13T14:13:08.620Z,97655.84
2023-02-13T14:15:50.602Z,97664.91
2023-02-13T14:17:56.986Z,97637.69
2023-02-13T14:20:00.360Z,97657.53
2023-02-13T14:22:32.413Z,97674.34
2023-02-13T14:24:36.577Z,97663.28
2023-02-13T14:26:40.597Z,97670.34
2023-02-13T14:28:44.823Z,97659.28
2023-02-13T14:30:47.973Z,97657.63
2023-02-13T14:32:50.807Z,97651.00
2023-02-13T14:34:57.365Z,97655.28
2023-02-13T14:37:17.182Z,97659.41
2023-02-13T14:39:27.801Z,97652.63
2023-02-13T14:41:47.496Z,97637.16
2023-02-13T14:43:53.874Z,97659.47
2023-02-13T14:46:01.019Z,97653.13
2023-02-13T14:48:07.854Z,97580.72
2023-02-13T14:50:19.041Z,97652.06
2023-02-13T14:52:27.451Z,97650.06
2023-02-13T14:54:34.587Z,97644.34
2023-02-13T14:56:39.308Z,97639.41
2023-02-13T14:58:50.960Z,97644.16
2023-02-13T15:00:57.895Z,97639.84
2023-02-13T15:03:05.291Z,97637.59
2023-02-13T15:05:14.544Z,97629.00
2023-02-13T15:07:23.541Z,97627.94
2023-02-13T15:09:33.364Z,97638.28
2023-02-13T15:11:38.784Z,97633.41
2023-02-13T15:13:41.712Z,97629.00
2023-02-13T15:15:51.722Z,97576.81
2023-02-13T15:17:58.405Z,97631.31
2023-02-13T15:20:06.015Z,97636.66
2023-02-13T15:22:16.319Z,97633.06
2023-02-13T15:24:22.787Z,97634.53
2023-02-13T15:26:28.802Z,97475.25
2023-02-13T15:28:32.705Z,97632.59
2023-02-13T15:30:36.941Z,97629.88
2023-02-13T15:32:41.352Z,97611.59
2023-02-13T15:34:48.538Z,97547.06
2023-02-13T15:36:54.191Z,97634.91
2023-02-13T15:39:00.112Z,97609.31
2023-02-13T15:41:07.523Z,97576.56
2023-02-13T15:43:23.277Z,97589.81
2023-02-13T15:45:28.325Z,97621.25
2023-02-13T15:47:34.016Z,97618.66
2023-02-13T15:49:43.618Z,97613.66
2023-02-13T15:51:47.313Z,97515.75
2023-02-13T15:53:54.155Z,97611.44
2023-02-13T15:55:58.686Z,97620.22
2023-02-13T15:58:02.828Z,97620.50
2023-02-13T16:00:08.833Z,97584.00
2023-02-13T16:02:24.025Z,97613.78
2023-02-13T16:04:27.355Z,97616.25
2023-02-13T16:06:31.839Z,97623.16
2023-02-13T16:08:38.327Z,97616.88
2023-02-13T16:10:42.098Z,97611.28
2023-02-13T16:12:47.603Z,97514.00
2023-02-13T16:14:54.801Z,97610.25
2023-02-13T16:17:01.405Z,97610.84
2023-02-13T16:19:04.568Z,97555.44
2023-02-13T16:21:09.150Z,97612.00
2023-02-13T16:23:21.051Z,97543.69
2023-02-13T16:25:27.024Z,97610.19
2023-02-13T16:27:30.371Z,97595.94
2023-02-13T16:29:33.725Z,97612.72
2023-02-13T16:31:37.318Z,97618.63
2023-02-13T16:33:42.584Z,97484.22
2023-02-13T16:35:48.702Z,97405.53
2023-02-13T16:37:56.261Z,97608.31
2023-02-13T16:40:22.898Z,97528.72
2023-02-13T16:42:26.522Z,97571.75
2023-02-13T16:44:31.926Z,97615.31
2023-02-13T16:46:36.954Z,97620.28
2023-02-13T16:48:40.168Z,97620.28
2023-02-13T16:50:44.167Z,97620.69
2023-02-13T16:52:47.950Z,97617.94
2023-02-13T16:54:55.562Z,97626.91
2023-02-13T16:57:02.316Z,97624.69
2023-02-13T16:59:15.158Z,97592.34
2023-02-13T17:01:18.639Z,97582.88
2023-02-13T17:03:21.406Z,97615.78
2023-02-13T17:05:25.824Z,97624.56
2023-02-13T17:07:30.418Z,97537.53
2023-02-13T17:09:33.144Z,97626.41
2023-02-13T17:11:35.826Z,97630.91
2023-02-13T17:13:39.850Z,97635.81
2023-02-13T17:15:44.360Z,97637.47
2023-02-13T17:17:47.890Z,97630.94
2023-02-13T17:19:51.493Z,97636.66
2023-02-13T17:21:55.720Z,97633.25
2023-02-13T17:23:59.088Z,97633.84
2023-02-13T17:26:01.877Z,97643.84
2023-02-13T17:28:14.272Z,97599.50
2023-02-13T17:30:21.297Z,97641.22
2023-02-13T17:32:26.659Z,97564.91
2023-02-13T17:34:29.440Z,97648.38
2023-02-13T17:36:32.148Z,97651.59
2023-02-13T17:38:34.924Z,97649.75
2023-02-13T17:40:37.848Z,97592.69
2023-02-13T17:42:40.757Z,97642.34
2023-02-13T17:44:43.500Z,97645.59
2023-02-13T17:46:47.813Z,97623.09
2023-02-13T17:48:50.544Z,97651.06
2023-02-13T17:50:53.365Z,97557.19
2023-02-13T17:52:57.314Z,97650.00
2023-02-13T17:55:00.209Z,97657.22
2023-02-13T17:57:03.098Z,97520.91
2023-02-13T17:59:05.874Z,97665.34
2023-02-13T18:01:11.302Z,97656.34
2023-02-13T18:03:16.976Z,97670.34
2023-02-13T18:05:20.155Z,97656.34
2023-02-13T18:07:23.306Z,97611.13
2023-02-13T18:09:26.270Z,97606.13
2023-02-13T18:11:29.020Z,97641.00
2023-02-13T18:13:31.713Z,97660.25
2023-02-13T18:15:36.424Z,97602.97
2023-02-13T18:17:39.951Z,97651.59
2023-02-13T18:19:45.531Z,97612.63
2023-02-13T18:21:50.292Z,97655.16
2023-02-13T18:23:53.726Z,97531.81
2023-02-13T18:26:05.433Z,97140.91
2023-02-13T18:28:08.174Z,97647.59
2023-02-13T18:30:13.574Z,97662.41
2023-02-13T18:32:16.305Z,97659.56
2023-02-13T18:34:19.071Z,97498.16
2023-02-13T18:36:23.111Z,97654.91
2023-02-13T18:38:25.797Z,97657.41
2023-02-13T18:40:28.912Z,97662.06
2023-02-13T18:42:31.610Z,97626.53
2023-02-13T18:44:34.699Z,97620.03
2023-02-13T18:46:37.787Z,97669.06
2023-02-13T18:48:40.717Z,97665.25
2023-02-13T18:50:43.865Z,97666.91
2023-02-13T18:52:48.032Z,97424.44
2023-02-13T18:54:51.539Z,97651.13
2023-02-13T18:56:54.241Z,97637.84
2023-02-13T18:58:56.986Z,97663.09
2023-02-13T19:01:06.808Z,97663.44
2023-02-13T19:03:09.623Z,97671.75
2023-02-13T19:05:12.630Z,97671.41
2023-02-13T19:07:15.424Z,97617.56
2023-02-13T19:09:19.694Z,97655.63
2023-02-13T19:11:24.235Z,97673.75
2023-02-13T19:13:27.029Z,97664.09
2023-02-13T19:15:29.906Z,97625.38
2023-02-13T19:17:33.037Z,97670.91
2023-02-13T19:19:35.759Z,97653.28
2023-02-13T19:21:39.761Z,97681.00
2023-02-13T19:23:42.800Z,97678.03
2023-02-13T19:25:46.910Z,97669.88
2023-02-13T19:27:49.642Z,97669.03
2023-02-13T19:29:52.397Z,97676.03
2023-02-13T19:31:55.273Z,97662.09
2023-02-13T19:33:59.462Z,97666.06
2023-02-13T19:36:06.334Z,97668.06
2023-02-13T19:38:09.211Z,97675.69
2023-02-13T19:40:13.829Z,97670.34
2023-02-13T19:42:18.056Z,97675.16
2023-02-13T19:44:20.773Z,97660.84
2023-02-13T19:46:25.808Z,97673.13
2023-02-13T19:48:28.732Z,97681.44
2023-02-13T19:50:31.430Z,97673.94
2023-02-13T19:52:34.159Z,97668.97
2023-02-13T19:54:37.128Z,97679.75
2023-02-13T19:56:40.846Z,97666.31
2023-02-13T19:58:45.170Z,97681.09
2023-02-13T20:00:49.100Z,97698.03
2023-02-13T20:02:54.920Z,97685.72
2023-02-13T20:04:57.643Z,97669.25
2023-02-13T20:07:00.321Z,97672.44
2023-02-13T20:09:06.650Z,97659.94
2023-02-13T20:11:10.164Z,97663.28
2023-02-13T20:13:12.993Z,97556.13
2023-02-13T20:15:17.110Z,97668.91
2023-02-13T20:17:19.867Z,97669.91
2023-02-13T20:19:22.533Z,97665.91
2023-02-13T20:21:25.248Z,97669.19
2023-02-13T20:23:27.915Z,97664.88
2023-02-13T20:25:32.434Z,97675.78
2023-02-13T20:29:39.937Z,97674.59
2023-02-13T20:31:44.118Z,97656.19
2023-02-13T20:33:47.920Z,97654.16
2023-02-13T20:35:51.103Z,97670.72
2023-02-13T20:37:53.918Z,97642.44
2023-02-13T20:39:56.675Z,97617.28
2023-02-13T20:41:59.423Z,97625.38
2023-02-13T20:44:04.980Z,97525.81
2023-02-13T20:46:08.775Z,97662.50
2023-02-13T20:48:12.959Z,97660.13
2023-02-13T20:50:15.790Z,97664.81
2023-02-13T20:52:18.549Z,97641.50
2023-02-13T20:54:21.350Z,97663.66
2023-02-13T20:56:29.266Z,97654.34
2023-02-13T20:58:32.768Z,97638.22
2023-02-13T21:00:35.636Z,97655.69
2023-02-13T21:02:38.442Z,97654.88
2023-02-13T21:04:42.662Z,97635.06
2023-02-13T21:06:46.651Z,97614.00
2023-02-13T21:08:49.892Z,97651.06
2023-02-13T21:10:52.662Z,97622.28
2023-02-13T21:12:55.377Z,97652.06
2023-02-13T21:14:58.149Z,97606.25
2023-02-13T21:17:00.874Z,97639.53
2023-02-13T21:19:07.308Z,97647.63
2023-02-13T21:21:12.827Z,97657.19
2023-02-13T21:23:15.593Z,97657.66
2023-02-13T21:25:18.680Z,97639.72
2023-02-13T21:27:22.387Z,97654.94
2023-02-13T21:29:25.157Z,97651.16
2023-02-13T21:31:30.368Z,97646.38
2023-02-13T21:33:33.254Z,97640.75
2023-02-13T21:35:36.017Z,97646.06
2023-02-13T21:37:40.704Z,97647.72
2023-02-13T21:39:43.518Z,97654.88
2023-02-13T21:41:47.208Z,97643.50
2023-02-13T21:43:51.016Z,97634.34
2023-02-13T21:45:53.807Z,97572.66
2023-02-13T21:47:57.143Z,97513.88
2023-02-13T21:49:59.868Z,97642.00
2023-02-13T21:52:02.659Z,97635.56
2023-02-13T21:54:07.176Z,97626.25
2023-02-13T21:56:13.443Z,97635.44
2023-02-13T21:58:16.197Z,97628.53
2023-02-13T22:00:19.197Z,97632.63
2023-02-13T22:02:22.180Z,97596.00
2023-02-13T22:04:25.092Z,97626.81
2023-02-13T22:06:29.507Z,97615.53
2023-02-13T22:08:32.327Z,97621.44
2023-02-13T22:10:36.461Z,97586.72
2023-02-13T22:12:39.218Z,97609.63
2023-02-13T22:14:42.128Z,97615.53
2023-02-13T22:16:46.413Z,97586.72
2023-02-13T22:18:50.605Z,97619.41
2023-02-13T22:20:54.680Z,97621.75
2023-02-13T22:22:57.489Z,97609.25
2023-02-13T22:25:00.271Z,97629.53
2023-02-13T22:27:05.106Z,97579.75
2023-02-13T22:29:09.899Z,97624.09
2023-02-13T22:31:15.092Z,97627.03
2023-02-13T22:33:17.912Z,97625.22
2023-02-13T22:35:20.653Z,97588.16
2023-02-13T22:37:23.485Z,97625.59
2023-02-13T22:39:26.274Z,97630.75
2023-02-13T22:41:29.268Z,97635.50
2023-02-13T22:43:33.496Z,97537.38
2023-02-13T22:45:36.411Z,97500.88
2023-02-13T22:47:39.214Z,97632.63
2023-02-13T22:49:41.981Z,97619.56
2023-02-13T22:51:44.799Z,97567.25
2023-02-13T22:53:48.387Z,97636.56
2023-02-13T22:55:51.116Z,97598.28
2023-02-13T22:57:54.891Z,97569.91
2023-02-13T22:59:58.945Z,97572.06
2023-02-13T23:02:01.707Z,97623.53
2023-02-13T23:04:04.819Z,97605.38
2023-02-13T23:06:09.704Z,97597.53
2023-02-13T23:08:12.446Z,97634.50
2023-02-13T23:10:15.207Z,97618.41
2023-02-13T23:12:35.450Z,97573.66
2023-02-13T23:14:38.311Z,97630.69
2023-02-13T23:17:01.138Z,97478.94
2023-02-13T23:19:03.896Z,97617.31
2023-02-13T23:21:08.023Z,97564.34
2023-02-13T23:23:12.141Z,97611.50
2023-02-13T23:25:15.434Z,97504.00
2023-02-13T23:27:18.201Z,97614.06
2023-02-13T23:29:21.021Z,97604.56
2023-02-13T23:31:23.848Z,97622.72
2023-02-13T23:33:28.176Z,97582.84
2023-02-13T23:35:31.001Z,97576.50
2023-02-13T23:37:33.777Z,97618.97
2023-02-13T23:39:36.636Z,97623.84
2023-02-13T23:41:39.389Z,97621.50
2023-02-13T23:43:42.121Z,97617.72
2023-02-13T23:45:44.923Z,97576.69
2023-02-13T23:47:47.643Z,97580.84
2023-02-13T23:49:51.721Z,97552.66
2023-02-13T23:51:54.701Z,97607.09
2023-02-13T23:53:57.519Z,97587.22
2023-02-13T23:56:00.289Z,97620.88
2023-02-13T23:58:03.058Z,97623.63
